sensor_id;sensor_type;location;lat;lon;timestamp;P1;durP1;ratioP1;P2;durP2;ratioP2
9657;SDS011;4867;48.112;11.622;2023-02-15T00:00:07;82.17;;;18.43;;
9657;SDS011;4867;48.112;11.622;2023-02-15T00:02:37;95.87;;;18.87;;
9657;SDS011;4867;48.112;11.622;2023-02-15T00:05:05;112.20;;;18.47;;
9657;SDS011;4867;48.112;11.622;2023-02-15T00:07:33;86.67;;;16.77;;
9657;SDS011;4867;48.112;11.622;2023-02-15T00:10:00;66.67;;;18.30;;
9657;SDS011;4867;48.112;11.622;2023-02-15T00:12:27;128.07;;;19.33;;
9657;SDS011;4867;48.112;11.622;2023-02-15T00:14:54;156.73;;;19.97;;
9657;SDS011;4867;48.112;11.622;2023-02-15T00:17:22;114.40;;;18.57;;
9657;SDS011;4867;48.112;11.622;2023-02-15T00:19:49;92.97;;;16.50;;
9657;SDS011;4867;48.112;11.622;2023-02-15T00:22:16;144.87;;;17.63;;
9657;SDS011;4867;48.112;11.622;2023-02-15T00:24:43;90.63;;;17.40;;
9657;SDS011;4867;48.112;11.622;2023-02-15T00:27:10;73.80;;;17.27;;
9657;SDS011;4867;48.112;11.622;2023-02-15T00:29:38;112.93;;;19.97;;
9657;SDS011;4867;48.112;11.622;2023-02-15T00:32:05;165.33;;;21.60;;
9657;SDS011;4867;48.112;11.622;2023-02-15T00:34:33;78.33;;;16.93;;
9657;SDS011;4867;48.112;11.622;2023-02-15T00:37:00;172.60;;;22.30;;
9657;SDS011;4867;48.112;11.622;2023-02-15T00:39:27;124.67;;;17.00;;
9657;SDS011;4867;48.112;11.622;2023-02-15T00:41:55;198.03;;;19.67;;
9657;SDS011;4867;48.112;11.622;2023-02-15T00:44:22;104.33;;;17.50;;
9657;SDS011;4867;48.112;11.622;2023-02-15T00:46:50;52.87;;;15.57;;
9657;SDS011;4867;48.112;11.622;2023-02-15T00:49:17;70.17;;;15.07;;
9657;SDS011;4867;48.112;11.622;2023-02-15T00:51:44;36.27;;;14.97;;
9657;SDS011;4867;48.112;11.622;2023-02-15T00:54:11;105.37;;;18.60;;
9657;SDS011;4867;48.112;11.622;2023-02-15T00:56:38;149.07;;;20.10;;
9657;SDS011;4867;48.112;11.622;2023-02-15T00:59:08;184.20;;;22.10;;
9657;SDS011;4867;48.112;11.622;2023-02-15T01:01:35;354.47;;;32.97;;
9657;SDS011;4867;48.112;11.622;2023-02-15T01:04:02;129.40;;;22.43;;
9657;SDS011;4867;48.112;11.622;2023-02-15T01:06:30;65.67;;;17.47;;
9657;SDS011;4867;48.112;11.622;2023-02-15T01:08:57;208.50;;;21.87;;
9657;SDS011;4867;48.112;11.622;2023-02-15T01:11:24;85.03;;;16.93;;
9657;SDS011;4867;48.112;11.622;2023-02-15T01:13:53;100.00;;;17.60;;
9657;SDS011;4867;48.112;11.622;2023-02-15T01:16:22;149.03;;;19.67;;
9657;SDS011;4867;48.112;11.622;2023-02-15T01:18:50;215.83;;;23.43;;
9657;SDS011;4867;48.112;11.622;2023-02-15T01:21:18;81.67;;;16.53;;
9657;SDS011;4867;48.112;11.622;2023-02-15T01:23:47;77.43;;;17.20;;
9657;SDS011;4867;48.112;11.622;2023-02-15T01:26:15;109.47;;;18.17;;
9657;SDS011;4867;48.112;11.622;2023-02-15T01:28:43;92.23;;;18.17;;
9657;SDS011;4867;48.112;11.622;2023-02-15T01:31:12;118.87;;;19.57;;
9657;SDS011;4867;48.112;11.622;2023-02-15T01:33:44;123.90;;;18.27;;
9657;SDS011;4867;48.112;11.622;2023-02-15T01:36:13;152.63;;;22.17;;
9657;SDS011;4867;48.112;11.622;2023-02-15T01:38:41;91.47;;;18.40;;
9657;SDS011;4867;48.112;11.622;2023-02-15T01:41:08;64.60;;;16.43;;
9657;SDS011;4867;48.112;11.622;2023-02-15T01:43:54;62.63;;;17.40;;
9657;SDS011;4867;48.112;11.622;2023-02-15T01:46:34;56.43;;;15.90;;
9657;SDS011;4867;48.112;11.622;2023-02-15T01:49:16;98.63;;;17.50;;
9657;SDS011;4867;48.112;11.622;2023-02-15T01:51:47;107.60;;;19.77;;
9657;SDS011;4867;48.112;11.622;2023-02-15T01:54:29;73.20;;;17.87;;
9657;SDS011;4867;48.112;11.622;2023-02-15T01:57:03;126.63;;;21.97;;
9657;SDS011;4867;48.112;11.622;2023-02-15T01:59:37;166.13;;;20.43;;
9657;SDS011;4867;48.112;11.622;2023-02-15T02:02:06;145.43;;;21.37;;
9657;SDS011;4867;48.112;11.622;2023-02-15T02:04:49;83.17;;;16.30;;
9657;SDS011;4867;48.112;11.622;2023-02-15T02:07:21;90.47;;;16.60;;
9657;SDS011;4867;48.112;11.622;2023-02-15T02:09:51;135.73;;;19.77;;
9657;SDS011;4867;48.112;11.622;2023-02-15T02:12:22;199.40;;;22.10;;
9657;SDS011;4867;48.112;11.622;2023-02-15T02:14:51;132.33;;;19.27;;
9657;SDS011;4867;48.112;11.622;2023-02-15T02:17:22;82.80;;;18.83;;
9657;SDS011;4867;48.112;11.622;2023-02-15T02:23:23;48.63;;;15.63;;
9657;SDS011;4867;48.112;11.622;2023-02-15T02:37:22;42.00;;;15.40;;
9657;SDS011;4867;48.112;11.622;2023-02-15T02:42:44;130.50;;;21.97;;
9657;SDS011;4867;48.112;11.622;2023-02-15T02:48:34;26.53;;;13.37;;
9657;SDS011;4867;48.112;11.622;2023-02-15T02:51:03;27.73;;;14.03;;
9657;SDS011;4867;48.112;11.622;2023-02-15T02:53:30;78.47;;;17.17;;
9657;SDS011;4867;48.112;11.622;2023-02-15T02:56:01;35.67;;;13.87;;
9657;SDS011;4867;48.112;11.622;2023-02-15T03:03:46;281.77;;;27.67;;
9657;SDS011;4867;48.112;11.622;2023-02-15T03:06:25;156.57;;;20.67;;
9657;SDS011;4867;48.112;11.622;2023-02-15T03:09:05;69.60;;;16.17;;
9657;SDS011;4867;48.112;11.622;2023-02-15T03:11:42;90.50;;;17.53;;
9657;SDS011;4867;48.112;11.622;2023-02-15T03:14:10;53.97;;;15.23;;
9657;SDS011;4867;48.112;11.622;2023-02-15T03:16:41;92.63;;;21.33;;
9657;SDS011;4867;48.112;11.622;2023-02-15T03:19:14;79.67;;;18.77;;
9657;SDS011;4867;48.112;11.622;2023-02-15T03:21:50;72.20;;;15.63;;
9657;SDS011;4867;48.112;11.622;2023-02-15T03:27:10;33.77;;;15.57;;
9657;SDS011;4867;48.112;11.622;2023-02-15T03:29:45;76.23;;;18.33;;
9657;SDS011;4867;48.112;11.622;2023-02-15T03:32:16;18.97;;;13.20;;
9657;SDS011;4867;48.112;11.622;2023-02-15T03:34:44;225.80;;;24.63;;
9657;SDS011;4867;48.112;11.622;2023-02-15T03:40:22;104.17;;;19.23;;
9657;SDS011;4867;48.112;11.622;2023-02-15T03:43:15;64.27;;;16.70;;
9657;SDS011;4867;48.112;11.622;2023-02-15T03:45:50;80.07;;;17.93;;
9657;SDS011;4867;48.112;11.622;2023-02-15T03:48:26;67.37;;;16.80;;
9657;SDS011;4867;48.112;11.622;2023-02-15T03:51:11;108.13;;;19.30;;
9657;SDS011;4867;48.112;11.622;2023-02-15T03:54:01;40.03;;;14.37;;
9657;SDS011;4867;48.112;11.622;2023-02-15T03:57:04;33.03;;;14.40;;
9657;SDS011;4867;48.112;11.622;2023-02-15T03:59:50;173.97;;;19.30;;
9657;SDS011;4867;48.112;11.622;2023-02-15T04:05:15;55.93;;;16.53;;
9657;SDS011;4867;48.112;11.622;2023-02-15T04:07:42;138.03;;;20.30;;
9657;SDS011;4867;48.112;11.622;2023-02-15T04:10:09;90.70;;;18.40;;
9657;SDS011;4867;48.112;11.622;2023-02-15T04:12:55;139.47;;;18.73;;
9657;SDS011;4867;48.112;11.622;2023-02-15T04:15:23;74.53;;;15.70;;
9657;SDS011;4867;48.112;11.622;2023-02-15T04:18:09;63.93;;;15.13;;
9657;SDS011;4867;48.112;11.622;2023-02-15T04:20:36;155.93;;;20.37;;
9657;SDS011;4867;48.112;11.622;2023-02-15T04:23:22;90.17;;;16.87;;
9657;SDS011;4867;48.112;11.622;2023-02-15T04:26:08;346.53;;;30.00;;
9657;SDS011;4867;48.112;11.622;2023-02-15T04:28:35;246.03;;;25.17;;
9657;SDS011;4867;48.112;11.622;2023-02-15T04:31:03;123.97;;;20.17;;
9657;SDS011;4867;48.112;11.622;2023-02-15T04:33:30;108.57;;;18.90;;
9657;SDS011;4867;48.112;11.622;2023-02-15T04:35:57;264.90;;;26.23;;
9657;SDS011;4867;48.112;11.622;2023-02-15T04:38:24;158.53;;;22.20;;
9657;SDS011;4867;48.112;11.622;2023-02-15T04:40:52;89.97;;;18.13;;
9657;SDS011;4867;48.112;11.622;2023-02-15T04:43:19;236.47;;;27.43;;
9657;SDS011;4867;48.112;11.622;2023-02-15T04:45:49;78.47;;;17.87;;
9657;SDS011;4867;48.112;11.622;2023-02-15T04:48:17;99.73;;;17.83;;
9657;SDS011;4867;48.112;11.622;2023-02-15T04:50:44;52.73;;;17.10;;
9657;SDS011;4867;48.112;11.622;2023-02-15T04:53:11;43.60;;;17.53;;
9657;SDS011;4867;48.112;11.622;2023-02-15T04:55:39;35.47;;;17.70;;
9657;SDS011;4867;48.112;11.622;2023-02-15T04:58:06;266.73;;;28.87;;
9657;SDS011;4867;48.112;11.622;2023-02-15T05:00:34;96.33;;;19.40;;
9657;SDS011;4867;48.112;11.622;2023-02-15T05:03:01;39.13;;;17.30;;
9657;SDS011;4867;48.112;11.622;2023-02-15T05:05:28;57.30;;;17.27;;
9657;SDS011;4867;48.112;11.622;2023-02-15T05:07:55;73.50;;;17.43;;
9657;SDS011;4867;48.112;11.622;2023-02-15T05:10:23;58.70;;;17.77;;
9657;SDS011;4867;48.112;11.622;2023-02-15T05:12:50;55.10;;;18.37;;
9657;SDS011;4867;48.112;11.622;2023-02-15T05:15:17;94.33;;;17.87;;
9657;SDS011;4867;48.112;11.622;2023-02-15T05:17:44;67.83;;;17.37;;
9657;SDS011;4867;48.112;11.622;2023-02-15T05:20:12;129.60;;;21.33;;
9657;SDS011;4867;48.112;11.622;2023-02-15T05:22:40;163.07;;;20.30;;
9657;SDS011;4867;48.112;11.622;2023-02-15T05:25:08;50.73;;;16.40;;
9657;SDS011;4867;48.112;11.622;2023-02-15T05:27:54;80.17;;;18.60;;
9657;SDS011;4867;48.112;11.622;2023-02-15T05:30:40;112.23;;;19.10;;
9657;SDS011;4867;48.112;11.622;2023-02-15T05:33:08;79.70;;;16.87;;
9657;SDS011;4867;48.112;11.622;2023-02-15T05:35:35;161.80;;;22.07;;
9657;SDS011;4867;48.112;11.622;2023-02-15T05:38:02;148.57;;;20.07;;
9657;SDS011;4867;48.112;11.622;2023-02-15T05:40:29;120.27;;;18.60;;
9657;SDS011;4867;48.112;11.622;2023-02-15T05:42:56;85.17;;;16.10;;
9657;SDS011;4867;48.112;11.622;2023-02-15T05:45:24;90.03;;;17.40;;
9657;SDS011;4867;48.112;11.622;2023-02-15T05:47:52;33.77;;;15.00;;
9657;SDS011;4867;48.112;11.622;2023-02-15T05:50:19;43.03;;;16.90;;
9657;SDS011;4867;48.112;11.622;2023-02-15T05:52:46;99.43;;;20.63;;
9657;SDS011;4867;48.112;11.622;2023-02-15T05:55:13;27.23;;;15.33;;
9657;SDS011;4867;48.112;11.622;2023-02-15T05:57:41;31.17;;;15.23;;
9657;SDS011;4867;48.112;11.622;2023-02-15T06:00:08;36.80;;;16.23;;
9657;SDS011;4867;48.112;11.622;2023-02-15T06:02:39;79.93;;;18.80;;
9657;SDS011;4867;48.112;11.622;2023-02-15T06:05:06;43.83;;;17.37;;
9657;SDS011;4867;48.112;11.622;2023-02-15T06:07:34;52.17;;;16.60;;
9657;SDS011;4867;48.112;11.622;2023-02-15T06:10:02;125.97;;;19.10;;
9657;SDS011;4867;48.112;11.622;2023-02-15T06:12:30;34.43;;;12.70;;
9657;SDS011;4867;48.112;11.622;2023-02-15T06:14:57;29.80;;;14.37;;
9657;SDS011;4867;48.112;11.622;2023-02-15T06:17:24;83.67;;;17.80;;
9657;SDS011;4867;48.112;11.622;2023-02-15T06:19:51;86.30;;;16.90;;
9657;SDS011;4867;48.112;11.622;2023-02-15T06:22:19;102.20;;;16.93;;
9657;SDS011;4867;48.112;11.622;2023-02-15T06:24:47;64.53;;;15.57;;
9657;SDS011;4867;48.112;11.622;2023-02-15T06:27:14;51.50;;;16.83;;
9657;SDS011;4867;48.112;11.622;2023-02-15T06:29:41;79.93;;;18.60;;
9657;SDS011;4867;48.112;11.622;2023-02-15T06:32:09;38.83;;;16.23;;
9657;SDS011;4867;48.112;11.622;2023-02-15T06:34:36;64.87;;;18.23;;
9657;SDS011;4867;48.112;11.622;2023-02-15T06:37:04;47.33;;;16.53;;
9657;SDS011;4867;48.112;11.622;2023-02-15T06:39:31;33.27;;;16.57;;
9657;SDS011;4867;48.112;11.622;2023-02-15T06:41:58;46.20;;;19.00;;
9657;SDS011;4867;48.112;11.622;2023-02-15T06:44:25;21.60;;;16.07;;
9657;SDS011;4867;48.112;11.622;2023-02-15T06:46:53;35.10;;;19.90;;
9657;SDS011;4867;48.112;11.622;2023-02-15T06:49:20;30.93;;;16.93;;
9657;SDS011;4867;48.112;11.622;2023-02-15T06:51:47;22.87;;;17.43;;
9657;SDS011;4867;48.112;11.622;2023-02-15T06:54:14;77.47;;;18.27;;
9657;SDS011;4867;48.112;11.622;2023-02-15T06:56:42;45.07;;;19.63;;
9657;SDS011;4867;48.112;11.622;2023-02-15T06:59:10;48.73;;;19.50;;
9657;SDS011;4867;48.112;11.622;2023-02-15T07:01:37;32.23;;;16.87;;
9657;SDS011;4867;48.112;11.622;2023-02-15T07:04:04;64.87;;;20.17;;
9657;SDS011;4867;48.112;11.622;2023-02-15T07:06:32;61.23;;;19.20;;
9657;SDS011;4867;48.112;11.622;2023-02-15T07:08:59;33.30;;;19.40;;
9657;SDS011;4867;48.112;11.622;2023-02-15T07:11:27;40.20;;;19.27;;
9657;SDS011;4867;48.112;11.622;2023-02-15T07:14:13;62.33;;;18.37;;
9657;SDS011;4867;48.112;11.622;2023-02-15T07:16:40;23.73;;;16.10;;
9657;SDS011;4867;48.112;11.622;2023-02-15T07:19:07;20.40;;;15.73;;
9657;SDS011;4867;48.112;11.622;2023-02-15T07:21:35;36.80;;;16.03;;
9657;SDS011;4867;48.112;11.622;2023-02-15T07:24:03;17.50;;;14.83;;
9657;SDS011;4867;48.112;11.622;2023-02-15T07:26:33;24.30;;;16.47;;
9657;SDS011;4867;48.112;11.622;2023-02-15T07:29:00;24.13;;;15.33;;
9657;SDS011;4867;48.112;11.622;2023-02-15T07:31:28;26.33;;;16.13;;
9657;SDS011;4867;48.112;11.622;2023-02-15T07:33:55;23.67;;;16.17;;
9657;SDS011;4867;48.112;11.622;2023-02-15T07:36:22;26.67;;;16.37;;
9657;SDS011;4867;48.112;11.622;2023-02-15T07:38:49;41.07;;;17.03;;
9657;SDS011;4867;48.112;11.622;2023-02-15T07:41:17;30.70;;;17.93;;
9657;SDS011;4867;48.112;11.622;2023-02-15T07:43:44;17.03;;;14.43;;
9657;SDS011;4867;48.112;11.622;2023-02-15T07:46:13;18.03;;;14.47;;
9657;SDS011;4867;48.112;11.622;2023-02-15T07:48:42;29.57;;;15.03;;
9657;SDS011;4867;48.112;11.622;2023-02-15T07:51:10;39.57;;;14.70;;
9657;SDS011;4867;48.112;11.622;2023-02-15T07:53:38;58.27;;;17.20;;
9657;SDS011;4867;48.112;11.622;2023-02-15T07:56:07;55.07;;;18.23;;
9657;SDS011;4867;48.112;11.622;2023-02-15T07:58:37;26.23;;;15.30;;
9657;SDS011;4867;48.112;11.622;2023-02-15T08:01:17;44.07;;;18.17;;
9657;SDS011;4867;48.112;11.622;2023-02-15T08:03:47;32.43;;;18.47;;
9657;SDS011;4867;48.112;11.622;2023-02-15T08:06:14;22.30;;;15.47;;
9657;SDS011;4867;48.112;11.622;2023-02-15T08:08:42;17.53;;;14.90;;
9657;SDS011;4867;48.112;11.622;2023-02-15T08:13:56;17.00;;;14.97;;
9657;SDS011;4867;48.112;11.622;2023-02-15T08:16:34;16.17;;;14.00;;
9657;SDS011;4867;48.112;11.622;2023-02-15T08:19:05;21.10;;;15.50;;
9657;SDS011;4867;48.112;11.622;2023-02-15T08:21:38;16.53;;;14.10;;
9657;SDS011;4867;48.112;11.622;2023-02-15T08:24:07;17.73;;;14.30;;
9657;SDS011;4867;48.112;11.622;2023-02-15T08:26:35;16.80;;;14.73;;
9657;SDS011;4867;48.112;11.622;2023-02-15T08:29:03;20.30;;;15.93;;
9657;SDS011;4867;48.112;11.622;2023-02-15T08:31:30;23.00;;;17.37;;
9657;SDS011;4867;48.112;11.622;2023-02-15T08:33:57;21.33;;;17.10;;
9657;SDS011;4867;48.112;11.622;2023-02-15T08:36:26;20.33;;;17.23;;
9657;SDS011;4867;48.112;11.622;2023-02-15T08:38:57;19.73;;;17.17;;
9657;SDS011;4867;48.112;11.622;2023-02-15T08:41:25;22.57;;;19.03;;
9657;SDS011;4867;48.112;11.622;2023-02-15T08:43:56;22.77;;;18.53;;
9657;SDS011;4867;48.112;11.622;2023-02-15T08:46:26;19.90;;;17.53;;
9657;SDS011;4867;48.112;11.622;2023-02-15T08:48:55;22.27;;;18.73;;
9657;SDS011;4867;48.112;11.622;2023-02-15T08:51:24;24.87;;;18.90;;
9657;SDS011;4867;48.112;11.622;2023-02-15T08:53:53;22.07;;;18.53;;
9657;SDS011;4867;48.112;11.622;2023-02-15T08:56:29;23.33;;;19.23;;
9657;SDS011;4867;48.112;11.622;2023-02-15T08:58:59;23.23;;;18.50;;
9657;SDS011;4867;48.112;11.622;2023-02-15T09:01:28;23.60;;;18.73;;
9657;SDS011;4867;48.112;11.622;2023-02-15T09:04:04;23.60;;;19.13;;
9657;SDS011;4867;48.112;11.622;2023-02-15T09:06:32;23.77;;;18.70;;
9657;SDS011;4867;48.112;11.622;2023-02-15T09:09:00;24.27;;;19.20;;
9657;SDS011;4867;48.112;11.622;2023-02-15T09:11:28;22.70;;;19.03;;
9657;SDS011;4867;48.112;11.622;2023-02-15T09:13:58;20.90;;;18.43;;
9657;SDS011;4867;48.112;11.622;2023-02-15T09:16:27;23.47;;;18.80;;
9657;SDS011;4867;48.112;11.622;2023-02-15T09:18:57;20.17;;;17.53;;
9657;SDS011;4867;48.112;11.622;2023-02-15T09:21:25;21.93;;;17.97;;
9657;SDS011;4867;48.112;11.622;2023-02-15T09:24:01;21.90;;;18.03;;
9657;SDS011;4867;48.112;11.622;2023-02-15T09:26:30;20.87;;;17.20;;
9657;SDS011;4867;48.112;11.622;2023-02-15T09:28:59;19.57;;;16.20;;
9657;SDS011;4867;48.112;11.622;2023-02-15T09:31:29;19.73;;;17.30;;
9657;SDS011;4867;48.112;11.622;2023-02-15T09:33:58;24.30;;;18.70;;
9657;SDS011;4867;48.112;11.622;2023-02-15T09:36:37;20.20;;;17.80;;
9657;SDS011;4867;48.112;11.622;2023-02-15T09:39:07;19.80;;;17.53;;
9657;SDS011;4867;48.112;11.622;2023-02-15T09:49:44;22.87;;;19.13;;
9657;SDS011;4867;48.112;11.622;2023-02-15T10:15:32;19.67;;;15.50;;
9657;SDS011;4867;48.112;11.622;2023-02-15T10:26:59;16.57;;;14.87;;
9657;SDS011;4867;48.112;11.622;2023-02-15T10:29:43;15.83;;;14.33;;
9657;SDS011;4867;48.112;11.622;2023-02-15T10:32:26;15.33;;;13.70;;
9657;SDS011;4867;48.112;11.622;2023-02-15T10:46:03;18.97;;;13.77;;
9657;SDS011;4867;48.112;11.622;2023-02-15T10:51:16;16.57;;;13.90;;
9657;SDS011;4867;48.112;11.622;2023-02-15T10:54:01;18.23;;;13.93;;
9657;SDS011;4867;48.112;11.622;2023-02-15T10:56:55;16.50;;;14.70;;
9657;SDS011;4867;48.112;11.622;2023-02-15T11:02:39;19.80;;;15.23;;
9657;SDS011;4867;48.112;11.622;2023-02-15T11:07:44;20.70;;;15.53;;
9657;SDS011;4867;48.112;11.622;2023-02-15T11:12:56;18.83;;;14.33;;
9657;SDS011;4867;48.112;11.622;2023-02-15T11:15:35;25.67;;;15.47;;
9657;SDS011;4867;48.112;11.622;2023-02-15T11:23:27;18.80;;;14.90;;
9657;SDS011;4867;48.112;11.622;2023-02-15T11:25:58;23.60;;;18.27;;
9657;SDS011;4867;48.112;11.622;2023-02-15T11:28:38;22.07;;;16.00;;
9657;SDS011;4867;48.112;11.622;2023-02-15T11:31:17;17.60;;;15.47;;
9657;SDS011;4867;48.112;11.622;2023-02-15T11:33:58;20.23;;;16.90;;
9657;SDS011;4867;48.112;11.622;2023-02-15T11:36:34;19.90;;;15.70;;
9657;SDS011;4867;48.112;11.622;2023-02-15T11:39:08;19.30;;;16.47;;
9657;SDS011;4867;48.112;11.622;2023-02-15T11:41:38;19.83;;;14.93;;
9657;SDS011;4867;48.112;11.622;2023-02-15T11:46:47;17.77;;;15.50;;
9657;SDS011;4867;48.112;11.622;2023-02-15T11:49:36;17.17;;;14.63;;
9657;SDS011;4867;48.112;11.622;2023-02-15T11:52:10;16.47;;;14.33;;
9657;SDS011;4867;48.112;11.622;2023-02-15T11:54:41;18.40;;;13.80;;
9657;SDS011;4867;48.112;11.622;2023-02-15T12:00:06;14.40;;;12.90;;
9657;SDS011;4867;48.112;11.622;2023-02-15T12:02:41;16.40;;;12.97;;
9657;SDS011;4867;48.112;11.622;2023-02-15T12:05:14;18.33;;;13.83;;
9657;SDS011;4867;48.112;11.622;2023-02-15T12:07:52;15.53;;;13.93;;
9657;SDS011;4867;48.112;11.622;2023-02-15T12:10:31;20.53;;;14.10;;
9657;SDS011;4867;48.112;11.622;2023-02-15T12:13:13;17.23;;;13.90;;
9657;SDS011;4867;48.112;11.622;2023-02-15T12:15:46;18.50;;;14.43;;
9657;SDS011;4867;48.112;11.622;2023-02-15T12:18:30;17.40;;;13.93;;
9657;SDS011;4867;48.112;11.622;2023-02-15T12:21:09;16.53;;;13.70;;
9657;SDS011;4867;48.112;11.622;2023-02-15T12:24:00;19.57;;;14.07;;
9657;SDS011;4867;48.112;11.622;2023-02-15T12:26:31;18.27;;;14.27;;
9657;SDS011;4867;48.112;11.622;2023-02-15T12:29:01;16.97;;;13.70;;
9657;SDS011;4867;48.112;11.622;2023-02-15T12:31:40;16.60;;;13.60;;
9657;SDS011;4867;48.112;11.622;2023-02-15T12:34:29;19.60;;;14.50;;
9657;SDS011;4867;48.112;11.622;2023-02-15T12:37:00;16.57;;;13.63;;
9657;SDS011;4867;48.112;11.622;2023-02-15T12:39:35;16.87;;;13.97;;
9657;SDS011;4867;48.112;11.622;2023-02-15T12:42:04;17.20;;;13.80;;
9657;SDS011;4867;48.112;11.622;2023-02-15T12:44:52;18.03;;;13.30;;
9657;SDS011;4867;48.112;11.622;2023-02-15T12:47:28;15.93;;;13.60;;
9657;SDS011;4867;48.112;11.622;2023-02-15T12:53:06;17.43;;;14.17;;
9657;SDS011;4867;48.112;11.622;2023-02-15T12:55:40;14.40;;;12.90;;
9657;SDS011;4867;48.112;11.622;2023-02-15T12:58:22;15.40;;;13.23;;
9657;SDS011;4867;48.112;11.622;2023-02-15T13:06:30;14.30;;;12.80;;
9657;SDS011;4867;48.112;11.622;2023-02-15T13:09:07;21.50;;;13.53;;
9657;SDS011;4867;48.112;11.622;2023-02-15T13:11:41;22.43;;;14.43;;
9657;SDS011;4867;48.112;11.622;2023-02-15T13:16:50;18.20;;;13.57;;
9657;SDS011;4867;48.112;11.622;2023-02-15T13:19:22;15.60;;;13.50;;
9657;SDS011;4867;48.112;11.622;2023-02-15T13:22:17;18.23;;;13.30;;
9657;SDS011;4867;48.112;11.622;2023-02-15T13:24:49;16.33;;;13.93;;
9657;SDS011;4867;48.112;11.622;2023-02-15T13:27:30;17.23;;;13.13;;
9657;SDS011;4867;48.112;11.622;2023-02-15T13:30:10;16.70;;;13.80;;
9657;SDS011;4867;48.112;11.622;2023-02-15T13:32:54;15.30;;;13.53;;
9657;SDS011;4867;48.112;11.622;2023-02-15T13:35:25;16.07;;;14.33;;
9657;SDS011;4867;48.112;11.622;2023-02-15T13:38:58;18.50;;;14.17;;
9657;SDS011;4867;48.112;11.622;2023-02-15T13:40:59;18.20;;;13.50;;
9657;SDS011;4867;48.112;11.622;2023-02-15T13:51:41;26.37;;;21.33;;
9657;SDS011;4867;48.112;11.622;2023-02-15T13:54:42;20.93;;;15.03;;
9657;SDS011;4867;48.112;11.622;2023-02-15T14:00:23;15.53;;;14.03;;
9657;SDS011;4867;48.112;11.622;2023-02-15T14:20:01;16.97;;;15.17;;
9657;SDS011;4867;48.112;11.622;2023-02-15T14:22:50;16.97;;;15.17;;
9657;SDS011;4867;48.112;11.622;2023-02-15T14:25:25;17.40;;;14.80;;
9657;SDS011;4867;48.112;11.622;2023-02-15T14:30:34;18.73;;;15.30;;
9657;SDS011;4867;48.112;11.622;2023-02-15T14:33:06;18.20;;;16.33;;
9657;SDS011;4867;48.112;11.622;2023-02-15T14:35:35;18.60;;;16.70;;
9657;SDS011;4867;48.112;11.622;2023-02-15T14:38:35;18.80;;;16.80;;
9657;SDS011;4867;48.112;11.622;2023-02-15T14:41:08;19.07;;;17.07;;
9657;SDS011;4867;48.112;11.622;2023-02-15T14:49:17;19.03;;;17.23;;
9657;SDS011;4867;48.112;11.622;2023-02-15T14:56:44;19.50;;;17.67;;
9657;SDS011;4867;48.112;11.622;2023-02-15T15:01:58;19.23;;;16.77;;
9657;SDS011;4867;48.112;11.622;2023-02-15T15:07:24;19.77;;;17.77;;
9657;SDS011;4867;48.112;11.622;2023-02-15T15:12:49;20.60;;;18.47;;
9657;SDS011;4867;48.112;11.622;2023-02-15T15:17:57;20.93;;;18.87;;
9657;SDS011;4867;48.112;11.622;2023-02-15T15:20:41;20.50;;;18.30;;
9657;SDS011;4867;48.112;11.622;2023-02-15T15:25:45;21.07;;;18.73;;
9657;SDS011;4867;48.112;11.622;2023-02-15T15:31:01;21.87;;;19.67;;
9657;SDS011;4867;48.112;11.622;2023-02-15T15:39:43;21.33;;;19.23;;
9657;SDS011;4867;48.112;11.622;2023-02-15T15:45:23;22.50;;;20.10;;
9657;SDS011;4867;48.112;11.622;2023-02-15T15:48:00;22.13;;;19.73;;
9657;SDS011;4867;48.112;11.622;2023-02-15T15:50:33;21.93;;;19.63;;
9657;SDS011;4867;48.112;11.622;2023-02-15T15:53:01;21.53;;;19.13;;
9657;SDS011;4867;48.112;11.622;2023-02-15T15:55:30;20.70;;;18.57;;
9657;SDS011;4867;48.112;11.622;2023-02-15T15:58:03;22.23;;;19.93;;
9657;SDS011;4867;48.112;11.622;2023-02-15T16:03:03;22.90;;;20.50;;
9657;SDS011;4867;48.112;11.622;2023-02-15T16:05:34;22.77;;;20.33;;
9657;SDS011;4867;48.112;11.622;2023-02-15T16:08:05;22.03;;;19.70;;
9657;SDS011;4867;48.112;11.622;2023-02-15T16:10:33;22.73;;;19.77;;
9657;SDS011;4867;48.112;11.622;2023-02-15T16:13:02;23.47;;;20.97;;
9657;SDS011;4867;48.112;11.622;2023-02-15T16:15:35;23.63;;;21.17;;
9657;SDS011;4867;48.112;11.622;2023-02-15T16:18:19;23.17;;;20.77;;
9657;SDS011;4867;48.112;11.622;2023-02-15T16:20:53;24.03;;;20.97;;
9657;SDS011;4867;48.112;11.622;2023-02-15T16:26:21;30.70;;;23.10;;
9657;SDS011;4867;48.112;11.622;2023-02-15T16:29:16;28.27;;;22.47;;
9657;SDS011;4867;48.112;11.622;2023-02-15T16:32:02;88.57;;;25.60;;
9657;SDS011;4867;48.112;11.622;2023-02-15T16:34:32;64.67;;;24.10;;
9657;SDS011;4867;48.112;11.622;2023-02-15T16:37:15;37.80;;;22.80;;
9657;SDS011;4867;48.112;11.622;2023-02-15T16:39:45;61.77;;;23.70;;
9657;SDS011;4867;48.112;11.622;2023-02-15T16:42:14;70.63;;;23.73;;
9657;SDS011;4867;48.112;11.622;2023-02-15T16:44:44;50.80;;;26.30;;
9657;SDS011;4867;48.112;11.622;2023-02-15T16:47:24;93.00;;;25.53;;
9657;SDS011;4867;48.112;11.622;2023-02-15T16:49:54;55.80;;;27.53;;
9657;SDS011;4867;48.112;11.622;2023-02-15T16:52:25;43.33;;;24.57;;
9657;SDS011;4867;48.112;11.622;2023-02-15T16:54:58;31.93;;;25.20;;
9657;SDS011;4867;48.112;11.622;2023-02-15T16:57:28;62.40;;;24.30;;
9657;SDS011;4867;48.112;11.622;2023-02-15T17:00:17;49.20;;;25.57;;
9657;SDS011;4867;48.112;11.622;2023-02-15T17:03:02;31.50;;;23.67;;
9657;SDS011;4867;48.112;11.622;2023-02-15T17:05:33;37.17;;;24.13;;
9657;SDS011;4867;48.112;11.622;2023-02-15T17:13:50;56.50;;;25.00;;
9657;SDS011;4867;48.112;11.622;2023-02-15T17:16:30;83.30;;;26.17;;
9657;SDS011;4867;48.112;11.622;2023-02-15T17:19:21;111.93;;;25.87;;
9657;SDS011;4867;48.112;11.622;2023-02-15T17:21:55;119.23;;;27.97;;
9657;SDS011;4867;48.112;11.622;2023-02-15T17:24:28;97.10;;;26.80;;
9657;SDS011;4867;48.112;11.622;2023-02-15T17:27:05;107.57;;;28.67;;
9657;SDS011;4867;48.112;11.622;2023-02-15T17:29:39;62.83;;;24.27;;
9657;SDS011;4867;48.112;11.622;2023-02-15T17:32:17;75.57;;;24.17;;
9657;SDS011;4867;48.112;11.622;2023-02-15T17:35:07;82.80;;;25.63;;
9657;SDS011;4867;48.112;11.622;2023-02-15T17:37:46;67.27;;;24.27;;
9657;SDS011;4867;48.112;11.622;2023-02-15T17:40:27;317.63;;;37.50;;
9657;SDS011;4867;48.112;11.622;2023-02-15T17:42:57;101.30;;;29.10;;
9657;SDS011;4867;48.112;11.622;2023-02-15T17:45:25;88.93;;;26.53;;
9657;SDS011;4867;48.112;11.622;2023-02-15T17:48:00;95.53;;;27.13;;
9657;SDS011;4867;48.112;11.622;2023-02-15T17:50:30;314.33;;;39.00;;
9657;SDS011;4867;48.112;11.622;2023-02-15T17:52:58;58.23;;;25.97;;
9657;SDS011;4867;48.112;11.622;2023-02-15T17:55:27;103.73;;;27.53;;
9657;SDS011;4867;48.112;11.622;2023-02-15T17:58:02;137.77;;;28.67;;
9657;SDS011;4867;48.112;11.622;2023-02-15T18:00:47;124.50;;;33.00;;
9657;SDS011;4867;48.112;11.622;2023-02-15T18:03:48;96.23;;;26.57;;
9657;SDS011;4867;48.112;11.622;2023-02-15T18:06:36;88.10;;;26.80;;
9657;SDS011;4867;48.112;11.622;2023-02-15T18:09:24;82.47;;;27.73;;
9657;SDS011;4867;48.112;11.622;2023-02-15T18:12:29;98.27;;;29.03;;
9657;SDS011;4867;48.112;11.622;2023-02-15T18:14:58;162.40;;;34.10;;
9657;SDS011;4867;48.112;11.622;2023-02-15T18:17:32;133.90;;;29.17;;
9657;SDS011;4867;48.112;11.622;2023-02-15T18:20:18;195.47;;;29.70;;
9657;SDS011;4867;48.112;11.622;2023-02-15T18:22:59;103.50;;;27.13;;